Terminal Aerodrome Forecast
Issued by NWS Charleston, WV

Home | Current Version | Previous Version | Text Only | Print | Product List | Glossary On
Versions: 1 2 3 4 5 6 7 8 9 10 11 12 13 14 15 16 17 18 19 20 21 22
000
FTUS41 KRLX 290500
TAFHTS
TAF
KHTS 290534Z 2906/3006 12004KT P6SM BKN200
     FM291200 17008KT P6SM BKN200
     FM291500 19009G18KT P6SM -RA OVC050
     FM291700 20009KT P6SM OVC050
     FM292100 27009KT P6SM OVC025
     FM300000 26009KT P6SM OVC018
     FM300500 28009KT 5SM -SN OVC014=

USA.gov is the U.S. government's official web portal to all federal, state and local government web resources and services.